createdAt,value
2018-03-08T00:01:44.249Z,92418.98
2018-03-08T00:04:10.640Z,92414.98
2018-03-08T00:06:37.061Z,92414.11
2018-03-08T00:09:03.561Z,92413.53
2018-03-08T00:11:29.972Z,92414.98
2018-03-08T00:13:56.631Z,92410.61
2018-03-08T00:16:24.472Z,92410.20
2018-03-08T00:18:50.851Z,92407.52
2018-03-08T00:21:17.225Z,92405.20
2018-03-08T00:23:43.613Z,92405.14
2018-03-08T00:26:10.939Z,92398.49
2018-03-08T00:28:37.282Z,92390.67
2018-03-08T00:31:03.649Z,92384.28
2018-03-08T00:33:29.993Z,92378.31
2018-03-08T00:36:06.572Z,92372.76
2018-03-08T00:38:32.923Z,92377.17
2018-03-08T00:40:59.295Z,92367.59
2018-03-08T00:43:25.654Z,92360.17
2018-03-08T00:45:55.594Z,92361.04
2018-03-08T00:48:22.000Z,92366.78
2018-03-08T00:50:48.429Z,92363.91
2018-03-08T00:53:14.819Z,92357.32
2018-03-08T00:55:48.358Z,92352.68
2018-03-08T00:58:14.685Z,92355.15
2018-03-08T01:00:41.071Z,92350.70
2018-03-08T01:03:07.504Z,92353.05
2018-03-08T01:05:33.946Z,92346.27
2018-03-08T01:08:00.254Z,92342.74
2018-03-08T01:10:26.691Z,92337.84
2018-03-08T01:12:52.987Z,92335.08
2018-03-08T01:15:19.374Z,92332.02
2018-03-08T01:17:45.715Z,92326.27
2018-03-08T01:20:12.036Z,92323.55
2018-03-08T01:22:38.411Z,92327.91
2018-03-08T01:25:04.859Z,92323.45
2018-03-08T01:27:31.181Z,92321.14
2018-03-08T01:29:57.553Z,92307.41
2018-03-08T01:32:24.188Z,92307.88
2018-03-08T01:34:50.530Z,92307.33
2018-03-08T01:37:16.877Z,92305.00
2018-03-08T01:39:43.252Z,92309.77
2018-03-08T01:42:09.568Z,92308.95
2018-03-08T01:44:35.875Z,92295.37
2018-03-08T01:47:02.370Z,92288.83
2018-03-08T01:49:28.680Z,92292.46
2018-03-08T01:52:07.243Z,92290.48
2018-03-08T01:54:33.568Z,92296.57
2018-03-08T01:56:59.950Z,92295.64
2018-03-08T01:59:26.349Z,92304.50
2018-03-08T02:01:52.764Z,92307.81
2018-03-08T02:04:19.063Z,92307.49
2018-03-08T02:06:48.757Z,92306.32
2018-03-08T02:09:15.076Z,92308.65
2018-03-08T02:11:41.420Z,92303.81
2018-03-08T02:14:07.781Z,92298.84
2018-03-08T02:16:34.153Z,92300.09
2018-03-08T02:19:00.449Z,92289.61
2018-03-08T02:21:26.827Z,92291.69
2018-03-08T02:23:53.212Z,92282.77
2018-03-08T02:26:19.559Z,92284.85
2018-03-08T02:28:45.923Z,92284.64
2018-03-08T02:31:12.295Z,92282.09
2018-03-08T02:33:38.656Z,92282.73
2018-03-08T02:36:05.022Z,92273.47
2018-03-08T02:38:31.336Z,92272.36
2018-03-08T02:40:57.624Z,92264.25
2018-03-08T02:43:24.002Z,92263.66
2018-03-08T02:45:50.434Z,92269.89
2018-03-08T02:48:16.786Z,92272.89
2018-03-08T02:50:43.185Z,92268.97
2018-03-08T02:53:09.499Z,92264.80
2018-03-08T02:55:35.956Z,92260.17
2018-03-08T02:58:02.382Z,92260.14
2018-03-08T03:00:28.712Z,92262.94
2018-03-08T03:02:55.022Z,92266.63
2018-03-08T03:05:21.454Z,92269.67
2018-03-08T03:07:47.828Z,92268.83
2018-03-08T03:10:14.142Z,92268.04
2018-03-08T03:12:40.517Z,92254.59
2018-03-08T03:15:06.902Z,92257.52
2018-03-08T03:17:34.205Z,92256.67
2018-03-08T03:20:00.598Z,92256.82
2018-03-08T03:22:26.935Z,92251.94
2018-03-08T03:24:53.259Z,92249.34
2018-03-08T03:27:19.592Z,92243.42
2018-03-08T03:29:46.018Z,92246.20
2018-03-08T03:32:12.338Z,92241.97
2018-03-08T03:34:38.662Z,92239.41
2018-03-08T03:37:13.333Z,92236.39
2018-03-08T03:39:39.671Z,92237.27
2018-03-08T03:42:05.980Z,92229.88
2018-03-08T03:44:32.351Z,92227.14
2018-03-08T03:47:02.316Z,92240.86
2018-03-08T03:49:28.617Z,92236.06
2018-03-08T03:51:54.940Z,92243.58
2018-03-08T03:54:21.372Z,92242.84
2018-03-08T03:56:48.778Z,92239.30
2018-03-08T03:59:15.102Z,92235.19
2018-03-08T04:01:41.563Z,92229.25
2018-03-08T04:04:07.847Z,92228.81
2018-03-08T04:06:34.213Z,92232.38
2018-03-08T04:09:00.625Z,92219.16
2018-03-08T04:11:26.922Z,92225.96
2018-03-08T04:13:53.272Z,92224.91
2018-03-08T04:16:19.694Z,92225.44
2018-03-08T04:18:45.981Z,92217.80
2018-03-08T04:21:12.302Z,92221.81
2018-03-08T04:23:38.771Z,92224.63
2018-03-08T04:26:10.703Z,92223.08
2018-03-08T04:28:37.029Z,92224.86
2018-03-08T04:31:03.413Z,92224.30
2018-03-08T04:33:29.707Z,92222.43
2018-03-08T04:35:59.788Z,92223.56
2018-03-08T04:38:26.247Z,92221.98
2018-03-08T04:40:52.867Z,92222.92
2018-03-08T04:43:19.220Z,92223.97
2018-03-08T04:45:46.636Z,92222.34
2018-03-08T04:48:12.957Z,92218.37
2018-03-08T04:50:39.303Z,92220.16
2018-03-08T04:53:05.716Z,92219.33
2018-03-08T04:55:32.099Z,92213.55
2018-03-08T04:57:58.484Z,92204.91
2018-03-08T05:00:24.922Z,92203.81
2018-03-08T05:02:51.709Z,92198.44
2018-03-08T05:05:18.726Z,92190.03
2018-03-08T05:07:45.490Z,92187.14
2018-03-08T05:10:11.831Z,92183.27
2018-03-08T05:12:38.201Z,92190.05
2018-03-08T05:15:04.650Z,92194.55
2018-03-08T05:17:31.045Z,92198.87
2018-03-08T05:19:57.390Z,92200.39
2018-03-08T05:22:24.025Z,92198.19
2018-03-08T05:24:50.423Z,92205.67
2018-03-08T05:27:16.854Z,92206.80
2018-03-08T05:29:43.243Z,92206.59
2018-03-08T05:32:09.619Z,92205.09
2018-03-08T05:34:36.003Z,92204.72
2018-03-08T05:37:02.466Z,92210.79
2018-03-08T05:39:28.959Z,92211.82
2018-03-08T05:41:55.580Z,92211.59
2018-03-08T05:44:21.937Z,92207.29
2018-03-08T05:46:48.328Z,92205.91
2018-03-08T05:49:14.677Z,92204.16
2018-03-08T05:51:41.135Z,92200.84
2018-03-08T05:54:07.571Z,92199.70
2018-03-08T05:56:36.073Z,92203.48
2018-03-08T05:59:02.463Z,92203.20
2018-03-08T06:01:28.837Z,92201.73
2018-03-08T06:03:55.164Z,92194.97
2018-03-08T06:06:21.606Z,92201.75
2018-03-08T06:08:47.929Z,92193.45
2018-03-08T06:11:14.296Z,92190.81
2018-03-08T06:13:40.729Z,92186.50
2018-03-08T06:16:07.231Z,92188.84
2018-03-08T06:18:33.602Z,92190.57
2018-03-08T06:21:00.031Z,92198.96
2018-03-08T06:23:26.353Z,92196.46
2018-03-08T06:25:52.835Z,92197.78
2018-03-08T06:28:19.239Z,92197.36
2018-03-08T06:30:45.602Z,92198.77
2018-03-08T06:33:11.976Z,92192.44
2018-03-08T06:35:38.388Z,92196.08
2018-03-08T06:38:05.044Z,92196.24
2018-03-08T06:40:31.621Z,92192.27
2018-03-08T06:42:58.040Z,92196.70
2018-03-08T06:45:25.480Z,92198.65
2018-03-08T06:47:51.898Z,92200.52
2018-03-08T06:50:18.281Z,92206.02
2018-03-08T06:52:44.806Z,92205.05
2018-03-08T06:55:12.252Z,92209.45
2018-03-08T06:57:38.615Z,92215.02
2018-03-08T07:00:04.982Z,92216.88
2018-03-08T07:02:31.338Z,92216.02
2018-03-08T07:04:57.747Z,92219.92
2018-03-08T07:07:24.134Z,92217.85
2018-03-08T07:09:51.361Z,92216.27
2018-03-08T07:12:17.738Z,92215.88
2018-03-08T07:14:44.126Z,92221.56
2018-03-08T07:17:10.481Z,92218.06
2018-03-08T07:19:36.952Z,92222.66
2018-03-08T07:22:03.274Z,92223.89
2018-03-08T07:24:29.614Z,92223.80
2018-03-08T07:26:56.070Z,92228.27
2018-03-08T07:29:22.394Z,92223.12
2018-03-08T07:31:48.875Z,92230.71
2018-03-08T07:34:15.244Z,92235.20
2018-03-08T07:36:41.701Z,92243.47
2018-03-08T07:39:08.020Z,92240.70
2018-03-08T07:41:34.410Z,92243.51
2018-03-08T07:44:00.780Z,92245.70
2018-03-08T07:46:27.247Z,92246.81
2018-03-08T07:48:53.669Z,92245.84
2018-03-08T07:51:19.963Z,92251.96
2018-03-08T07:53:46.482Z,92247.14
2018-03-08T07:56:12.931Z,92248.19
2018-03-08T07:58:39.277Z,92249.73
2018-03-08T08:01:05.605Z,92250.61
2018-03-08T08:03:32.353Z,92256.58
2018-03-08T08:06:10.901Z,92253.76
2018-03-08T08:08:49.624Z,92251.28
2018-03-08T08:11:15.958Z,92260.22
2018-03-08T08:13:42.286Z,92260.89
2018-03-08T08:16:08.836Z,92261.67
2018-03-08T08:18:35.206Z,92263.88
2018-03-08T08:21:01.611Z,92269.93
2018-03-08T08:23:28.357Z,92267.21
2018-03-08T08:25:54.779Z,92266.98
2018-03-08T08:28:21.124Z,92261.62
2018-03-08T08:30:47.480Z,92260.92
2018-03-08T08:33:13.825Z,92262.94
2018-03-08T08:35:40.246Z,92266.12
2018-03-08T08:38:06.701Z,92270.80
2018-03-08T08:40:33.058Z,92267.88
2018-03-08T08:42:59.514Z,92264.20
2018-03-08T08:45:26.026Z,92269.42
2018-03-08T08:47:52.459Z,92266.65
2018-03-08T08:50:18.858Z,92266.95
2018-03-08T08:52:45.356Z,92269.95
2018-03-08T08:55:12.628Z,92269.20
2018-03-08T08:57:39.105Z,92267.59
2018-03-08T09:00:05.630Z,92277.95
2018-03-08T09:02:32.765Z,92277.52
2018-03-08T09:04:59.286Z,92279.22
2018-03-08T09:07:25.801Z,92281.66
2018-03-08T09:09:52.323Z,92278.85
2018-03-08T09:12:18.718Z,92284.16
2018-03-08T09:14:45.095Z,92278.80
2018-03-08T09:17:11.847Z,92280.90
2018-03-08T09:45:00.673Z,92318.23
2018-03-08T09:47:27.354Z,92318.19
2018-03-08T09:49:54.029Z,92321.78
2018-03-08T09:52:20.562Z,92316.70
2018-03-08T09:54:46.936Z,92326.80
2018-03-08T09:57:13.336Z,92325.96
2018-03-08T09:59:39.750Z,92331.71
2018-03-08T10:02:06.614Z,92331.53
2018-03-08T10:04:32.951Z,92336.70
2018-03-08T10:06:59.434Z,92337.49
2018-03-08T10:09:25.920Z,92337.30
2018-03-08T10:11:52.343Z,92341.84
2018-03-08T10:14:18.756Z,92338.88
2018-03-08T10:16:45.310Z,92341.69
2018-03-08T10:19:12.307Z,92340.06
2018-03-08T10:21:45.631Z,92340.89
2018-03-08T10:24:05.169Z,92339.14
2018-03-08T10:26:31.848Z,92339.94
2018-03-08T10:28:58.254Z,92347.58
2018-03-08T10:31:24.601Z,92352.12
2018-03-08T10:33:50.956Z,92353.61
2018-03-08T10:36:17.582Z,92355.63
2018-03-08T10:38:43.984Z,92357.16
2018-03-08T10:41:10.392Z,92352.09
2018-03-08T10:43:36.758Z,92359.00
2018-03-08T10:46:03.172Z,92357.13
2018-03-08T10:48:29.570Z,92369.30
2018-03-08T10:50:56.046Z,92360.59
2018-03-08T10:53:22.457Z,92369.91
2018-03-08T10:55:48.898Z,92366.09
2018-03-08T10:58:15.340Z,92370.41
2018-03-08T11:00:45.691Z,92366.28
2018-03-08T11:03:12.149Z,92371.83
2018-03-08T11:05:44.711Z,92373.16
2018-03-08T11:08:11.187Z,92374.66
2018-03-08T11:10:37.661Z,92374.00
2018-03-08T11:13:04.083Z,92373.63
2018-03-08T11:15:30.500Z,92375.94
2018-03-08T11:17:56.880Z,92376.27
2018-03-08T11:20:23.292Z,92377.86
2018-03-08T11:22:49.723Z,92375.22
2018-03-08T11:25:16.111Z,92374.72
2018-03-08T11:27:42.673Z,92384.57
2018-03-08T11:30:09.073Z,92378.38
2018-03-08T11:32:36.269Z,92377.56
2018-03-08T11:35:02.791Z,92379.82
2018-03-08T11:37:29.249Z,92379.56
2018-03-08T11:39:55.576Z,92381.87
2018-03-08T11:42:23.019Z,92391.01
2018-03-08T11:44:49.608Z,92394.86
2018-03-08T11:47:16.068Z,92403.28
2018-03-08T11:49:42.557Z,92404.17
2018-03-08T11:52:09.018Z,92407.99
2018-03-08T11:54:35.420Z,92409.28
2018-03-08T11:57:01.849Z,92403.36
2018-03-08T11:59:28.393Z,92415.03
2018-03-08T12:01:55.061Z,92416.95
2018-03-08T12:04:21.434Z,92418.37
2018-03-08T12:06:47.907Z,92412.11
2018-03-08T12:09:14.297Z,92412.13
2018-03-08T12:11:40.671Z,92417.63
2018-03-08T12:14:07.898Z,92417.08
2018-03-08T12:16:34.322Z,92424.40
2018-03-08T12:19:00.926Z,92420.14
2018-03-08T12:21:27.393Z,92416.77
2018-03-08T12:23:53.726Z,92422.37
2018-03-08T12:26:20.214Z,92421.44
2018-03-08T12:28:46.614Z,92416.66
2018-03-08T12:31:13.980Z,92422.41
2018-03-08T12:33:40.446Z,92419.33
2018-03-08T12:36:06.901Z,92426.45
2018-03-08T12:38:33.298Z,92427.73
2018-03-08T12:40:59.727Z,92429.58
2018-03-08T12:43:26.143Z,92421.86
2018-03-08T12:45:52.725Z,92427.80
2018-03-08T12:48:19.248Z,92430.42
2018-03-08T12:50:45.795Z,92429.20
2018-03-08T12:53:12.205Z,92432.00
2018-03-08T12:55:38.737Z,92431.36
2018-03-08T12:58:05.107Z,92436.88
2018-03-08T13:00:31.516Z,92443.22
2018-03-08T13:02:58.158Z,92447.02
2018-03-08T13:05:24.695Z,92456.85
2018-03-08T13:07:51.203Z,92456.52
2018-03-08T13:10:17.798Z,92451.81
2018-03-08T13:12:44.227Z,92458.78
2018-03-08T13:15:11.649Z,92462.99
2018-03-08T13:17:38.241Z,92465.48
2018-03-08T13:20:04.806Z,92463.83
2018-03-08T13:22:32.299Z,92471.73
2018-03-08T13:24:58.813Z,92473.27
2018-03-08T13:27:28.837Z,92472.73
2018-03-08T13:29:55.590Z,92481.66
2018-03-08T13:32:23.000Z,92486.16
2018-03-08T13:34:49.444Z,92489.89
2018-03-08T13:37:15.996Z,92491.32
2018-03-08T13:39:43.908Z,92494.87
2018-03-08T13:42:10.492Z,92505.16
2018-03-08T13:44:37.501Z,92502.30
2018-03-08T13:47:06.063Z,92509.88
2018-03-08T13:49:37.435Z,92515.77
2018-03-08T13:52:03.900Z,92520.07
2018-03-08T13:54:30.349Z,92528.77
2018-03-08T13:56:56.729Z,92527.27
2018-03-08T13:59:23.133Z,92536.05
2018-03-08T14:01:49.811Z,92531.56
2018-03-08T14:04:16.156Z,92535.41
2018-03-08T14:06:42.618Z,92540.34
2018-03-08T14:09:09.099Z,92537.76
2018-03-08T14:11:35.518Z,92538.86
2018-03-08T14:14:02.122Z,92547.84
2018-03-08T14:16:29.613Z,92550.20
2018-03-08T14:18:55.959Z,92549.38
2018-03-08T14:21:22.434Z,92551.60
2018-03-08T14:23:48.826Z,92559.52
2018-03-08T14:26:15.319Z,92562.53
2018-03-08T14:28:42.188Z,92570.30
2018-03-08T14:31:08.543Z,92570.39
2018-03-08T14:33:35.385Z,92562.89
2018-03-08T14:36:01.949Z,92568.61
2018-03-08T14:38:28.616Z,92569.02
2018-03-08T14:40:55.607Z,92577.28
2018-03-08T14:43:22.187Z,92587.02
2018-03-08T14:45:48.665Z,92595.62
2018-03-08T14:48:15.070Z,92597.80
2018-03-08T14:50:41.653Z,92609.96
2018-03-08T14:53:08.204Z,92611.02
2018-03-08T14:55:39.231Z,92619.86
2018-03-08T14:58:05.673Z,92629.61
2018-03-08T15:00:32.070Z,92624.03
2018-03-08T15:02:58.485Z,92631.00
2018-03-08T15:05:25.074Z,92630.73
2018-03-08T15:07:51.414Z,92636.95
2018-03-08T15:10:17.755Z,92642.64
2018-03-08T15:12:44.202Z,92647.14
2018-03-08T15:15:10.559Z,92653.55
2018-03-08T15:17:40.120Z,92658.86
2018-03-08T15:20:06.492Z,92656.84
2018-03-08T15:22:32.865Z,92665.31
2018-03-08T15:24:59.265Z,92676.83
2018-03-08T15:27:26.779Z,92680.27
2018-03-08T15:29:53.117Z,92682.73
2018-03-08T15:32:19.462Z,92687.91
2018-03-08T15:34:46.020Z,92698.50
2018-03-08T15:37:16.197Z,92701.47
2018-03-08T15:39:42.778Z,92702.56
2018-03-08T15:42:09.157Z,92708.02
2018-03-08T15:44:35.639Z,92717.50
2018-03-08T15:47:02.173Z,92717.05
2018-03-08T15:49:28.582Z,92719.50
2018-03-08T15:51:55.830Z,92731.41
2018-03-08T15:54:22.229Z,92734.14
2018-03-08T15:56:48.767Z,92745.44
2018-03-08T15:59:15.144Z,92746.17
2018-03-08T16:01:41.610Z,92759.09
2018-03-08T16:04:08.033Z,92758.48
2018-03-08T16:06:46.713Z,92769.45
2018-03-08T16:09:25.383Z,92770.86
2018-03-08T16:11:51.864Z,92773.17
2018-03-08T16:14:18.242Z,92779.88
2018-03-08T16:16:44.732Z,92790.98
2018-03-08T16:19:11.177Z,92796.00
2018-03-08T16:21:38.435Z,92793.73
2018-03-08T16:24:05.015Z,92800.63
2018-03-08T16:26:31.522Z,92809.93
2018-03-08T16:28:57.894Z,92817.78
2018-03-08T16:31:24.338Z,92828.05
2018-03-08T16:33:50.752Z,92836.16
2018-03-08T16:36:17.311Z,92841.08
2018-03-08T16:38:43.955Z,92851.75
2018-03-08T16:41:10.482Z,92857.72
2018-03-08T16:43:37.122Z,92861.77
2018-03-08T16:46:07.007Z,92870.18
2018-03-08T16:48:33.494Z,92879.47
2018-03-08T16:50:59.971Z,92882.91
2018-03-08T16:53:26.622Z,92897.16
2018-03-08T16:55:53.145Z,92896.02
2018-03-08T16:58:19.727Z,92901.42
2018-03-08T17:00:46.442Z,92909.53
2018-03-08T17:03:12.964Z,92917.49
2018-03-08T17:05:40.603Z,92923.39
2018-03-08T17:08:07.500Z,92932.62
2018-03-08T17:10:34.002Z,92944.27
2018-03-08T17:13:00.443Z,92948.42
2018-03-08T17:15:30.687Z,92953.02
2018-03-08T17:17:57.281Z,92961.23
2018-03-08T17:20:25.338Z,92966.86
2018-03-08T17:22:51.781Z,92976.52
2018-03-08T17:25:18.122Z,92990.52
2018-03-08T17:27:44.698Z,92993.32
2018-03-08T17:30:11.254Z,92997.52
2018-03-08T17:32:37.666Z,92998.88
2018-03-08T17:35:04.121Z,93005.88
2018-03-08T17:37:30.658Z,93008.73
2018-03-08T17:39:57.038Z,93015.42
2018-03-08T17:42:23.898Z,93022.31
2018-03-08T17:47:46.961Z,93035.09
2018-03-08T17:50:13.443Z,93041.45
2018-03-08T17:52:39.891Z,93047.86
2018-03-08T17:55:06.359Z,93052.71
2018-03-08T17:57:32.914Z,93062.91
2018-03-08T17:59:59.373Z,93067.36
2018-03-08T18:02:25.929Z,93065.90
2018-03-08T18:04:52.298Z,93067.55
2018-03-08T18:07:18.849Z,93071.38
2018-03-08T18:09:45.339Z,93072.26
2018-03-08T18:12:11.847Z,93067.95
2018-03-08T18:14:39.296Z,93070.03
2018-03-08T18:17:08.204Z,93071.72
2018-03-08T18:19:34.623Z,93075.59
2018-03-08T18:22:01.128Z,93084.65
2018-03-08T18:24:27.618Z,93085.46
2018-03-08T18:27:02.346Z,93082.53
2018-03-08T18:29:29.541Z,93082.52
2018-03-08T18:31:56.480Z,93084.47
2018-03-08T18:34:22.993Z,93094.06
2018-03-08T18:36:49.673Z,93099.41
2018-03-08T18:39:16.068Z,93103.73
2018-03-08T18:41:42.664Z,93113.91
2018-03-08T18:44:09.431Z,93109.72
2018-03-08T18:46:35.957Z,93115.38
2018-03-08T18:49:02.447Z,93118.66
2018-03-08T18:51:28.909Z,93126.91
2018-03-08T18:53:55.585Z,93131.46
2018-03-08T18:56:24.164Z,93141.96
2018-03-08T18:58:50.698Z,93145.66
2018-03-08T19:01:17.181Z,93146.55
2018-03-08T19:03:43.587Z,93159.89
2018-03-08T19:06:10.988Z,93164.86
2018-03-08T19:08:37.550Z,93164.50
2018-03-08T19:11:04.008Z,93170.30
2018-03-08T19:13:31.012Z,93166.27
2018-03-08T19:15:57.721Z,93174.56
2018-03-08T19:18:24.458Z,93172.50
2018-03-08T19:20:51.120Z,93171.68
2018-03-08T19:23:18.219Z,93176.58
2018-03-08T19:25:46.760Z,93181.73
2018-03-08T19:28:13.621Z,93182.58
2018-03-08T19:30:40.422Z,93185.20
2018-03-08T19:33:07.042Z,93187.05
2018-03-08T19:35:34.054Z,93192.56
2018-03-08T19:38:01.357Z,93196.17
2018-03-08T19:40:28.480Z,93197.60
2018-03-08T19:42:55.499Z,93201.06
2018-03-08T19:45:22.493Z,93205.65
2018-03-08T19:47:49.493Z,93209.10
2018-03-08T19:50:16.205Z,93209.13
2018-03-08T19:52:43.777Z,93214.47
2018-03-08T19:55:10.360Z,93226.19
2018-03-08T19:57:37.975Z,93231.80
2018-03-08T20:00:05.330Z,93231.59
2018-03-08T20:02:31.898Z,93231.73
2018-03-08T20:04:58.763Z,93226.59
2018-03-08T20:07:25.379Z,93224.99
2018-03-08T20:09:52.491Z,93237.34
2018-03-08T20:12:19.079Z,93234.09
2018-03-08T20:14:45.543Z,93244.74
2018-03-08T20:17:12.209Z,93247.31
2018-03-08T20:19:38.784Z,93250.07
2018-03-08T20:22:05.291Z,93251.94
2018-03-08T20:24:31.704Z,93252.59
2018-03-08T20:26:58.258Z,93254.85
2018-03-08T20:29:24.648Z,93251.98
2018-03-08T20:31:51.093Z,93261.39
2018-03-08T20:34:17.497Z,93265.33
2018-03-08T20:36:44.017Z,93268.97
2018-03-08T20:39:10.465Z,93269.33
2018-03-08T20:41:37.030Z,93268.20
2018-03-08T20:44:03.442Z,93264.30
2018-03-08T20:46:30.874Z,93263.25
2018-03-08T20:48:57.487Z,93268.00
2018-03-08T20:51:23.938Z,93267.88
2018-03-08T20:53:50.370Z,93273.16
2018-03-08T20:56:17.732Z,93272.02
2018-03-08T20:58:44.453Z,93270.20
2018-03-08T21:01:11.198Z,93271.27
2018-03-08T21:03:38.039Z,93271.53
2018-03-08T21:06:05.704Z,93276.75
2018-03-08T21:08:33.152Z,93274.39
2018-03-08T21:10:59.738Z,93278.23
2018-03-08T21:16:23.077Z,93281.33
2018-03-08T21:18:49.507Z,93284.45
2018-03-08T21:21:15.968Z,93280.97
2018-03-08T21:26:39.756Z,93271.85
2018-03-08T21:32:02.812Z,93284.17
2018-03-08T21:34:29.284Z,93279.84
2018-03-08T21:36:55.680Z,93278.50
2018-03-08T21:39:22.155Z,93278.05
2018-03-08T21:41:48.531Z,93283.77
2018-03-08T21:44:14.897Z,93281.71
2018-03-08T21:46:41.417Z,93274.28
2018-03-08T21:49:07.936Z,93278.66
2018-03-08T21:51:34.437Z,93276.41
2018-03-08T21:54:00.855Z,93281.55
2018-03-08T21:56:27.253Z,93285.63
2018-03-08T21:58:53.629Z,93283.11
2018-03-08T22:01:20.077Z,93286.80
2018-03-08T22:03:46.464Z,93294.04
2018-03-08T22:06:12.953Z,93291.05
2018-03-08T22:08:39.390Z,93294.63
2018-03-08T22:11:05.709Z,93297.50
2018-03-08T22:13:32.089Z,93304.28
2018-03-08T22:15:58.621Z,93301.87
2018-03-08T22:18:24.968Z,93304.87
2018-03-08T22:20:51.396Z,93306.61
2018-03-08T22:23:17.809Z,93303.83
2018-03-08T22:25:44.172Z,93308.28
2018-03-08T22:28:10.548Z,93315.48
2018-03-08T22:30:37.705Z,93310.23
2018-03-08T22:33:04.162Z,93312.66
2018-03-08T22:35:30.539Z,93315.41
2018-03-08T22:37:56.964Z,93313.17
2018-03-08T22:40:23.340Z,93312.36
2018-03-08T22:42:49.710Z,93318.99
2018-03-08T22:45:16.193Z,93317.80
2018-03-08T22:47:42.650Z,93315.31
2018-03-08T22:50:09.108Z,93320.01
2018-03-08T22:52:35.592Z,93326.51
2018-03-08T22:55:01.959Z,93323.13
2018-03-08T22:57:28.384Z,93329.05
2018-03-08T22:59:54.768Z,93333.19
2018-03-08T23:02:27.167Z,93333.19
2018-03-08T23:04:53.533Z,93329.30
2018-03-08T23:07:19.955Z,93332.85
2018-03-08T23:09:46.295Z,93333.85
2018-03-08T23:12:12.676Z,93330.67
2018-03-08T23:14:39.137Z,93338.27
2018-03-08T23:17:05.548Z,93334.64
2018-03-08T23:19:31.933Z,93340.91
2018-03-08T23:21:58.300Z,93341.86
2018-03-08T23:24:24.710Z,93335.17
2018-03-08T23:26:51.086Z,93340.66
2018-03-08T23:29:17.478Z,93341.37
2018-03-08T23:31:43.888Z,93342.68
2018-03-08T23:34:10.273Z,93343.66
2018-03-08T23:36:36.730Z,93347.80
2018-03-08T23:39:03.700Z,93342.60
2018-03-08T23:41:30.108Z,93342.27
2018-03-08T23:43:56.516Z,93350.38
2018-03-08T23:46:23.021Z,93354.06
2018-03-08T23:48:49.404Z,93355.34
2018-03-08T23:51:15.900Z,93358.38
2018-03-08T23:53:42.303Z,93357.63
2018-03-08T23:56:08.690Z,93351.30
2018-03-08T23:58:35.041Z,93357.59
